Accedi per prenotare

Caricamento...

Situazione Metar e Taf aeroporto Pisa - Effemeridi Aeroporto Lucca

[Source: ADDS]
METAR
LIRP 091515Z 28007KT CAVOK 22/08 Q1017 NOSIG =
LIRP 091100Z 0912/1012 26008KT CAVOK BECMG 0920/0922 10008KT PROB30 TEMPO 1000/1006 VRB03KT 4000 BR NSC
TAF
LIRP 091100Z 0912/1012 26008KT CAVOK BECMG 0920/0922 10008KT PROB30 TEMPO 1000/1006 VRB03KT 4000 BR NSC =
SR / SS: 04:03 / 18:29 UTC (Effemeridi LIQL 2021-05-09)